Time;durP1;ratioP1;P1;durP2;ratioP2;P2;SDS_P1;SDS_P2;PMS_P1;PMS_P2;Temp;Humidity;BMP_temperature;BMP_pressure;BME280_temperature;BME280_humidity;BME280_pressure;Samples;Min_cycle;Max_cycle;Signal;HPM_P1;HPM_P2
2023/04/23 00:01:34;;;;;;;149.05;61.28;;;8.00;99.90;;;;;;5005973;28;20450;-92
2023/04/23 00:04:00;;;;;;;145.60;61.22;;;8.00;99.90;;;;;;5006820;28;20537;-91
2023/04/23 00:06:29;;;;;;;140.85;60.45;;;8.00;99.90;;;;;;5010551;28;20037;-91
2023/04/23 00:08:58;;;;;;;127.80;55.53;;;8.00;99.90;;;;;;5009160;28;20026;-92
2023/04/23 00:11:23;;;;;;;147.68;62.78;;;8.00;99.90;;;;;;5011093;28;20468;-92
2023/04/23 00:13:49;;;;;;;143.23;58.88;;;8.00;99.90;;;;;;5002125;28;20109;-92
2023/04/23 00:16:15;;;;;;;152.55;62.42;;;7.90;99.90;;;;;;5001189;28;20030;-92
2023/04/23 00:18:41;;;;;;;146.55;61.33;;;7.90;99.90;;;;;;5009910;28;20038;-91
2023/04/23 00:21:08;;;;;;;151.63;62.08;;;7.90;99.90;;;;;;5011315;28;20470;-91
2023/04/23 00:23:33;;;;;;;156.93;62.47;;;7.90;99.90;;;;;;5012176;28;20030;-92
2023/04/23 00:25:59;;;;;;;147.10;60.90;;;7.80;99.90;;;;;;5015504;28;20564;-92
2023/04/23 00:28:24;;;;;;;141.88;56.05;;;7.80;99.90;;;;;;5014205;28;20508;-92
2023/04/23 00:30:50;;;;;;;134.55;57.13;;;7.80;99.90;;;;;;5015153;28;20125;-92
2023/04/23 00:33:15;;;;;;;154.27;60.95;;;7.80;99.90;;;;;;5006103;28;20034;-91
2023/04/23 00:35:41;;;;;;;148.85;60.47;;;7.70;99.90;;;;;;5005426;28;20026;-90
2023/04/23 00:38:06;;;;;;;147.48;60.05;;;7.70;99.90;;;;;;5006700;28;20057;-91
2023/04/23 00:40:32;;;;;;;152.20;59.75;;;7.70;99.90;;;;;;5004756;28;20030;-91
2023/04/23 00:42:59;;;;;;;146.38;58.05;;;7.70;99.90;;;;;;5010959;28;20026;-91
2023/04/23 00:45:24;;;;;;;145.70;58.25;;;7.60;99.90;;;;;;5007530;28;20022;-90
2023/04/23 00:47:51;;;;;;;134.23;55.70;;;7.70;99.90;;;;;;5004140;28;20081;-91
2023/04/23 00:50:16;;;;;;;155.43;59.85;;;7.60;99.90;;;;;;5013742;28;20371;-91
2023/04/23 00:52:42;;;;;;;148.50;59.05;;;7.60;99.90;;;;;;5015295;28;20056;-92
2023/04/23 00:55:08;;;;;;;148.48;56.95;;;7.60;99.90;;;;;;5015390;28;20034;-91
2023/04/23 00:57:35;;;;;;;146.02;57.95;;;7.60;99.90;;;;;;5007510;28;20034;-90
2023/04/23 01:00:01;;;;;;;147.32;58.78;;;7.60;99.90;;;;;;5012299;28;20029;-91
2023/04/23 01:02:29;;;;;;;147.98;57.47;;;7.50;99.90;;;;;;5014043;28;20478;-91
2023/04/23 01:04:56;;;;;;;151.02;58.25;;;7.50;99.90;;;;;;5014214;28;20554;-92
2023/04/23 01:07:22;;;;;;;129.48;54.55;;;7.50;99.90;;;;;;5012366;28;20027;-91
2023/04/23 01:09:51;;;;;;;159.70;53.60;;;7.50;99.90;;;;;;5008426;28;20505;-91
2023/04/23 01:12:16;;;;;;;142.82;55.67;;;7.50;99.90;;;;;;5007355;28;20037;-90
2023/04/23 01:14:42;;;;;;;135.98;53.38;;;7.40;99.90;;;;;;5009768;28;20026;-91
2023/04/23 01:17:10;;;;;;;137.23;53.65;;;7.40;99.90;;;;;;5007942;28;20098;-92
2023/04/23 01:19:36;;;;;;;143.80;56.00;;;7.40;99.90;;;;;;5010622;28;20036;-91
2023/04/23 01:22:02;;;;;;;147.57;57.20;;;7.40;99.90;;;;;;5011768;28;20128;-91
2023/04/23 01:24:30;;;;;;;144.85;55.90;;;7.40;99.90;;;;;;5010991;28;20034;-91
2023/04/23 01:26:57;;;;;;;133.80;54.17;;;7.40;99.90;;;;;;5007843;28;20032;-92
2023/04/23 01:29:23;;;;;;;142.75;53.40;;;7.40;99.90;;;;;;5005825;28;20494;-91
2023/04/23 01:31:50;;;;;;;138.05;53.55;;;7.40;99.90;;;;;;5007878;28;20026;-92
2023/04/23 01:34:16;;;;;;;141.93;54.53;;;7.40;99.90;;;;;;5014963;28;20041;-92
2023/04/23 01:36:42;;;;;;;150.27;56.03;;;7.40;99.90;;;;;;5013043;28;20421;-91
2023/04/23 01:39:08;;;;;;;142.07;56.03;;;7.40;99.90;;;;;;5012121;28;20393;-92
2023/04/23 01:41:35;;;;;;;136.05;52.97;;;7.30;99.90;;;;;;5001781;28;20029;-92
2023/04/23 01:44:01;;;;;;;145.90;56.15;;;7.30;99.90;;;;;;5003364;28;20030;-92
2023/04/23 01:46:27;;;;;;;136.32;53.28;;;7.40;99.90;;;;;;5014447;28;20063;-91
2023/04/23 01:48:53;;;;;;;140.10;54.65;;;7.40;99.90;;;;;;5010223;28;20061;-91
2023/04/23 01:51:18;;;;;;;136.30;55.13;;;7.50;99.90;;;;;;5013128;28;20072;-92
2023/04/23 01:53:44;;;;;;;134.02;53.75;;;7.50;99.90;;;;;;5013700;28;20474;-91
2023/04/23 01:56:10;;;;;;;139.18;55.55;;;7.50;99.90;;;;;;5007279;28;20030;-92
2023/04/23 01:58:36;;;;;;;137.00;54.97;;;7.50;99.90;;;;;;5008394;28;20042;-91
2023/04/23 02:01:02;;;;;;;141.35;56.05;;;7.60;99.90;;;;;;5007375;28;20018;-91
2023/04/23 02:03:29;;;;;;;130.02;54.90;;;7.60;99.90;;;;;;5011992;28;20144;-91
2023/04/23 02:05:55;;;;;;;135.80;54.42;;;7.60;99.90;;;;;;5004171;28;20061;-92
2023/04/23 02:08:21;;;;;;;133.88;56.25;;;7.60;99.90;;;;;;4996991;28;20035;-90
2023/04/23 02:10:47;;;;;;;135.57;54.35;;;7.70;99.90;;;;;;5008312;28;20049;-91
2023/04/23 02:13:13;;;;;;;140.50;56.38;;;7.70;99.90;;;;;;5013109;28;20026;-92
2023/04/23 02:15:39;;;;;;;133.07;56.30;;;7.70;99.90;;;;;;5009730;28;20053;-91
2023/04/23 02:18:05;;;;;;;135.13;54.60;;;7.80;99.90;;;;;;5010033;28;20041;-91
2023/04/23 02:20:31;;;;;;;134.63;55.40;;;7.80;99.90;;;;;;5010392;28;20022;-91
2023/04/23 02:22:56;;;;;;;128.50;54.70;;;7.80;99.90;;;;;;5004727;28;20068;-92
2023/04/23 02:25:22;;;;;;;119.28;53.08;;;7.90;99.90;;;;;;5013552;28;20380;-90
2023/04/23 02:27:48;;;;;;;114.30;48.25;;;7.90;99.90;;;;;;5008312;28;21674;-90
2023/04/23 02:30:14;;;;;;;114.03;50.13;;;7.90;99.90;;;;;;5012511;28;20099;-91
2023/04/23 02:32:41;;;;;;;124.32;52.83;;;7.90;99.90;;;;;;5006138;28;20027;-90
2023/04/23 02:35:08;;;;;;;119.05;52.13;;;7.90;99.90;;;;;;5009770;28;20034;-91
2023/04/23 02:37:34;;;;;;;112.32;50.65;;;7.90;99.90;;;;;;4997578;28;20030;-91
2023/04/23 02:40:00;;;;;;;119.07;51.60;;;7.90;99.90;;;;;;5001354;28;20071;-92
2023/04/23 02:42:25;;;;;;;116.10;50.60;;;7.90;99.90;;;;;;5011295;28;20030;-91
2023/04/23 02:44:51;;;;;;;112.82;52.08;;;7.90;99.90;;;;;;5002179;28;20069;-91
2023/04/23 02:47:17;;;;;;;113.60;49.95;;;7.90;99.90;;;;;;5007016;28;20059;-90
2023/04/23 02:49:42;;;;;;;110.82;48.92;;;7.90;99.90;;;;;;5007985;28;20033;-91
2023/04/23 02:52:08;;;;;;;116.00;50.33;;;7.90;99.90;;;;;;5013847;28;20386;-91
2023/04/23 02:54:35;;;;;;;109.72;48.88;;;7.80;99.90;;;;;;5007975;28;20554;-91
2023/04/23 02:57:01;;;;;;;99.28;45.53;;;7.80;99.90;;;;;;5000899;28;20052;-91
2023/04/23 02:59:27;;;;;;;100.97;46.67;;;7.80;99.90;;;;;;5010285;28;20822;-91
2023/04/23 03:01:53;;;;;;;98.25;46.25;;;7.80;99.90;;;;;;5008573;28;20061;-92
2023/04/23 03:04:19;;;;;;;96.80;44.85;;;7.80;99.90;;;;;;5009476;28;20042;-91
2023/04/23 03:06:44;;;;;;;98.85;48.00;;;7.80;99.90;;;;;;5005024;28;20121;-92
2023/04/23 03:09:11;;;;;;;108.32;49.10;;;7.80;99.90;;;;;;5003242;28;20133;-91
2023/04/23 03:11:37;;;;;;;100.93;47.00;;;7.80;99.90;;;;;;4999075;28;20497;-91
2023/04/23 03:14:02;;;;;;;101.75;48.25;;;7.80;99.90;;;;;;4999483;28;20030;-91
2023/04/23 03:16:28;;;;;;;96.55;45.92;;;7.80;99.90;;;;;;5002072;28;20372;-91
2023/04/23 03:18:54;;;;;;;95.18;44.83;;;7.80;99.90;;;;;;5018922;28;20029;-92
2023/04/23 03:21:20;;;;;;;95.00;43.72;;;7.90;99.90;;;;;;5015619;28;20120;-92
2023/04/23 03:23:45;;;;;;;105.65;45.90;;;7.90;99.90;;;;;;5012440;28;20046;-91
2023/04/23 03:26:11;;;;;;;95.30;45.03;;;7.90;99.90;;;;;;5011510;28;20045;-91
2023/04/23 03:28:36;;;;;;;101.13;47.45;;;8.00;99.90;;;;;;5012392;28;20538;-92
2023/04/23 03:31:02;;;;;;;92.45;46.30;;;8.00;99.90;;;;;;5003661;28;20018;-91
2023/04/23 03:33:27;;;;;;;92.05;47.25;;;8.00;99.90;;;;;;5018157;28;20474;-91
2023/04/23 03:35:53;;;;;;;90.00;43.03;;;8.00;99.90;;;;;;5015849;28;20022;-93
2023/04/23 03:38:19;;;;;;;88.75;43.35;;;8.00;99.90;;;;;;5011478;28;20041;-91
2023/04/23 03:40:45;;;;;;;85.97;42.55;;;8.00;99.90;;;;;;5011366;28;20026;-92
2023/04/23 03:43:11;;;;;;;87.93;45.33;;;8.00;99.90;;;;;;5021191;28;20037;-91
2023/04/23 03:45:36;;;;;;;86.32;42.42;;;8.00;99.90;;;;;;5015911;28;20024;-91
2023/04/23 03:48:02;;;;;;;88.05;44.22;;;8.00;99.90;;;;;;5008879;28;20022;-91
2023/04/23 03:50:28;;;;;;;89.32;42.85;;;8.00;99.90;;;;;;5011461;28;20034;-91
2023/04/23 03:52:54;;;;;;;81.55;41.40;;;8.00;99.90;;;;;;5012396;28;20029;-90
2023/04/23 03:55:19;;;;;;;78.65;42.13;;;8.00;99.90;;;;;;5012239;28;20095;-91
2023/04/23 03:57:45;;;;;;;83.95;42.08;;;8.00;99.90;;;;;;5009972;28;20046;-91
2023/04/23 04:00:11;;;;;;;81.32;41.67;;;8.00;99.90;;;;;;5011325;28;20514;-91
2023/04/23 04:02:38;;;;;;;84.30;41.35;;;8.00;99.90;;;;;;5011701;28;20037;-91
2023/04/23 04:05:04;;;;;;;73.13;35.13;;;8.00;99.90;;;;;;5012000;28;20022;-90
2023/04/23 04:07:30;;;;;;;69.05;38.58;;;7.90;99.90;;;;;;5011644;28;20041;-91
2023/04/23 04:09:56;;;;;;;71.45;37.58;;;7.90;99.90;;;;;;5008127;28;20022;-90
2023/04/23 04:12:21;;;;;;;74.38;39.83;;;7.90;99.90;;;;;;5009821;28;20032;-90
2023/04/23 04:14:47;;;;;;;80.88;40.25;;;7.90;99.90;;;;;;4994368;28;20029;-91
2023/04/23 04:17:14;;;;;;;73.00;37.83;;;7.90;99.90;;;;;;5006677;28;20139;-89
2023/04/23 04:19:40;;;;;;;75.38;38.25;;;7.90;99.90;;;;;;5005553;28;20041;-90
2023/04/23 04:22:06;;;;;;;79.95;40.00;;;7.90;99.90;;;;;;5008316;28;20037;-91
2023/04/23 04:24:31;;;;;;;67.55;36.13;;;7.90;99.90;;;;;;5011338;28;20185;-88
2023/04/23 04:27:01;;;;;;;71.47;38.28;;;7.90;99.90;;;;;;5011555;28;20418;-91
2023/04/23 04:29:27;;;;;;;66.65;36.03;;;8.00;99.90;;;;;;5006294;28;20030;-91
2023/04/23 04:31:56;;;;;;;64.60;34.97;;;8.00;99.90;;;;;;5008902;28;20037;-92
2023/04/23 04:34:22;;;;;;;68.63;38.53;;;8.10;99.90;;;;;;5014295;28;20506;-92
2023/04/23 04:36:47;;;;;;;69.15;37.65;;;8.10;99.90;;;;;;5012293;28;20368;-93
2023/04/23 04:39:13;;;;;;;69.75;37.78;;;8.20;99.90;;;;;;5002057;28;20045;-92
2023/04/23 04:41:40;;;;;;;65.10;37.78;;;8.20;99.90;;;;;;5006651;28;20029;-92
2023/04/23 04:44:07;;;;;;;66.40;37.08;;;8.30;99.90;;;;;;5002682;28;20041;-93
2023/04/23 04:46:39;;;;;;;65.18;36.75;;;8.40;99.90;;;;;;5009120;28;20128;-93
2023/04/23 04:49:07;;;;;;;68.57;38.70;;;8.40;99.90;;;;;;5002411;28;20049;-92
2023/04/23 04:51:32;;;;;;;66.78;36.42;;;8.50;99.90;;;;;;5010519;28;20044;-92
2023/04/23 04:53:58;;;;;;;64.53;36.40;;;8.50;99.90;;;;;;5008077;28;20030;-94
2023/04/23 04:56:24;;;;;;;63.78;35.47;;;8.60;99.90;;;;;;5011428;28;20105;-91
2023/04/23 04:58:50;;;;;;;64.50;36.88;;;8.60;99.90;;;;;;5010478;28;20037;-91
2023/04/23 05:01:17;;;;;;;65.63;36.20;;;8.70;99.90;;;;;;5010393;28;20029;-92
2023/04/23 05:03:43;;;;;;;61.80;36.50;;;8.70;99.90;;;;;;5011062;28;20057;-92
2023/04/23 05:06:08;;;;;;;59.55;36.08;;;8.80;99.90;;;;;;5009048;28;20022;-91
2023/04/23 05:08:34;;;;;;;57.42;33.58;;;8.80;99.90;;;;;;5013615;28;20029;-91
2023/04/23 05:11:01;;;;;;;59.28;35.15;;;8.80;99.90;;;;;;5010164;28;20117;-92
2023/04/23 05:13:26;;;;;;;60.15;34.78;;;8.90;99.90;;;;;;5012951;28;20030;-92
2023/04/23 05:15:52;;;;;;;55.90;33.05;;;9.00;99.90;;;;;;5018697;28;20048;-91
2023/04/23 05:18:17;;;;;;;54.00;32.22;;;8.90;99.90;;;;;;5019646;28;20038;-91
2023/04/23 05:20:43;;;;;;;50.05;30.13;;;8.90;99.90;;;;;;5014168;28;20030;-91
2023/04/23 05:23:09;;;;;;;52.10;30.92;;;8.90;99.90;;;;;;5017648;28;20030;-91
2023/04/23 05:25:34;;;;;;;52.63;32.53;;;8.90;99.90;;;;;;5010107;28;20485;-91
2023/04/23 05:28:00;;;;;;;52.78;32.92;;;8.90;99.90;;;;;;5014212;28;20029;-90
2023/04/23 05:30:26;;;;;;;49.53;30.90;;;8.90;99.90;;;;;;5012065;28;20023;-91
2023/04/23 05:32:52;;;;;;;53.20;32.50;;;9.00;99.90;;;;;;5013481;28;20395;-91
2023/04/23 05:35:17;;;;;;;45.20;30.17;;;9.10;99.90;;;;;;5005302;28;20019;-92
2023/04/23 05:37:43;;;;;;;48.90;30.15;;;9.10;99.90;;;;;;5006562;28;20045;-92
2023/04/23 05:40:09;;;;;;;47.58;29.27;;;9.20;99.90;;;;;;5013584;28;20026;-91
2023/04/23 05:42:35;;;;;;;45.75;27.23;;;9.20;99.90;;;;;;5012659;28;20057;-92
2023/04/23 05:45:02;;;;;;;44.15;28.52;;;9.10;99.90;;;;;;5005502;28;20116;-92
2023/04/23 05:47:28;;;;;;;45.58;28.35;;;9.20;99.90;;;;;;5013949;28;20416;-82
2023/04/23 05:49:56;;;;;;;41.88;27.65;;;9.20;99.90;;;;;;5011399;28;20451;-91
2023/04/23 05:52:22;;;;;;;41.17;26.52;;;9.30;99.90;;;;;;5014938;28;20022;-92
2023/04/23 05:54:47;;;;;;;44.72;28.25;;;9.30;99.90;;;;;;5013250;28;20080;-91
2023/04/23 05:57:13;;;;;;;44.17;29.33;;;9.40;99.90;;;;;;5014807;28;20033;-90
2023/04/23 05:59:38;;;;;;;46.83;30.27;;;9.50;99.90;;;;;;5012521;28;20064;-90
2023/04/23 06:02:04;;;;;;;41.72;28.15;;;9.60;99.90;;;;;;5016118;28;20033;-91
2023/04/23 06:04:30;;;;;;;39.25;26.48;;;9.70;99.90;;;;;;5011645;28;20050;-91
2023/04/23 06:06:55;;;;;;;40.53;26.38;;;9.80;99.90;;;;;;5013722;28;20497;-90
2023/04/23 06:09:21;;;;;;;41.78;27.63;;;9.90;99.90;;;;;;5010160;28;20026;-90
2023/04/23 06:11:49;;;;;;;38.72;26.45;;;10.00;99.90;;;;;;5016134;28;20038;-90
2023/04/23 06:14:15;;;;;;;40.58;26.40;;;10.10;99.90;;;;;;5016285;28;20029;-90
2023/04/23 06:16:40;;;;;;;35.72;25.60;;;10.20;99.90;;;;;;5012612;28;20516;-91
2023/04/23 06:19:06;;;;;;;36.22;25.80;;;10.30;99.90;;;;;;5016792;28;20103;-90
2023/04/23 06:21:31;;;;;;;36.20;24.50;;;10.40;99.90;;;;;;5012897;28;20390;-90
2023/04/23 06:23:57;;;;;;;36.42;25.20;;;10.50;99.90;;;;;;5001318;28;20437;-90
2023/04/23 06:26:23;;;;;;;34.22;24.98;;;10.50;99.90;;;;;;5009614;28;20560;-90
2023/04/23 06:28:48;;;;;;;36.30;25.58;;;10.60;99.90;;;;;;5009510;28;20033;-91
2023/04/23 06:31:14;;;;;;;33.33;24.48;;;10.70;99.90;;;;;;5011042;28;20080;-90
2023/04/23 06:33:39;;;;;;;35.90;24.88;;;10.80;99.90;;;;;;5007525;28;20176;-90
2023/04/23 06:36:08;;;;;;;35.72;25.00;;;10.90;99.90;;;;;;5011829;28;20501;-90
2023/04/23 06:38:33;;;;;;;31.83;23.95;;;10.90;99.90;;;;;;5011779;28;20119;-90
2023/04/23 06:40:59;;;;;;;33.53;24.27;;;11.00;99.90;;;;;;5003118;28;20074;-89
2023/04/23 06:43:25;;;;;;;30.73;22.02;;;11.10;99.90;;;;;;5015277;28;20030;-90
2023/04/23 06:45:50;;;;;;;32.78;24.45;;;11.20;99.90;;;;;;5013322;28;20117;-90
2023/04/23 06:48:17;;;;;;;28.17;20.88;;;11.30;99.90;;;;;;5012682;28;20033;-91
2023/04/23 06:50:43;;;;;;;29.98;21.17;;;11.30;99.90;;;;;;5013178;28;20022;-91
2023/04/23 06:53:09;;;;;;;33.58;21.42;;;11.40;99.90;;;;;;5012992;28;20026;-90
2023/04/23 06:55:34;;;;;;;26.88;19.52;;;11.50;99.90;;;;;;4999975;28;20049;-90
2023/04/23 06:58:00;;;;;;;26.33;19.17;;;11.50;99.90;;;;;;5012141;28;20038;-90
2023/04/23 07:00:26;;;;;;;24.13;19.02;;;11.60;99.90;;;;;;5011921;28;20029;-89
2023/04/23 07:02:51;;;;;;;21.65;16.77;;;11.70;99.90;;;;;;5014291;28;20038;-89
2023/04/23 07:05:17;;;;;;;24.67;17.85;;;11.80;99.90;;;;;;5028181;28;20068;-89
2023/04/23 07:07:43;;;;;;;24.67;17.55;;;11.80;99.90;;;;;;5016701;28;20028;-90
2023/04/23 07:10:11;;;;;;;21.55;17.02;;;11.90;99.90;;;;;;5012828;28;20026;-90
2023/04/23 07:12:40;;;;;;;22.25;16.40;;;12.00;99.90;;;;;;5012722;28;20022;-90
2023/04/23 07:15:06;;;;;;;21.20;16.45;;;12.10;99.90;;;;;;5013183;28;20034;-91
2023/04/23 07:17:32;;;;;;;20.23;15.80;;;12.10;99.90;;;;;;5008551;28;20026;-90
2023/04/23 07:19:57;;;;;;;21.30;15.98;;;12.20;99.90;;;;;;5012350;28;20038;-90
2023/04/23 07:22:24;;;;;;;19.45;15.43;;;12.30;99.90;;;;;;5014978;28;20023;-91
2023/04/23 07:24:50;;;;;;;19.15;14.48;;;12.40;99.90;;;;;;5006549;28;20030;-90
2023/04/23 07:27:16;;;;;;;19.58;14.10;;;12.40;99.90;;;;;;5010322;28;20018;-91
2023/04/23 07:29:41;;;;;;;20.45;14.02;;;12.50;99.90;;;;;;5012831;28;20117;-90
2023/04/23 07:32:07;;;;;;;18.60;14.05;;;12.60;99.90;;;;;;5001229;28;20025;-90
2023/04/23 07:34:33;;;;;;;18.23;14.20;;;12.60;99.90;;;;;;5012619;28;20033;-88
2023/04/23 07:36:58;;;;;;;16.77;13.55;;;12.80;99.90;;;;;;5007615;28;20040;-88
2023/04/23 07:39:24;;;;;;;18.15;12.88;;;12.80;99.90;;;;;;5012647;28;20128;-89
2023/04/23 07:41:49;;;;;;;19.33;15.32;;;12.90;99.90;;;;;;5012291;28;20060;-89
2023/04/23 07:44:15;;;;;;;19.50;12.30;;;13.00;99.90;;;;;;5012821;28;20075;-89
2023/04/23 07:46:40;;;;;;;18.55;13.13;;;13.10;99.90;;;;;;5004229;28;20018;-89
2023/04/23 07:49:06;;;;;;;19.10;13.00;;;13.10;99.90;;;;;;5012193;28;20360;-88
2023/04/23 07:51:32;;;;;;;19.83;12.25;;;13.10;99.90;;;;;;5000515;28;20356;-88
2023/04/23 07:53:58;;;;;;;16.75;12.70;;;13.30;99.90;;;;;;5012602;28;20038;-88
2023/04/23 07:56:24;;;;;;;18.83;12.02;;;13.30;99.90;;;;;;5004448;28;20026;-90
2023/04/23 07:58:52;;;;;;;17.77;12.00;;;13.50;99.90;;;;;;5010338;28;20042;-90
2023/04/23 08:01:18;;;;;;;19.33;10.77;;;13.50;99.90;;;;;;5008475;28;20026;-89
2023/04/23 08:03:44;;;;;;;17.02;11.38;;;13.60;99.90;;;;;;5005352;28;20513;-88
2023/04/23 08:06:11;;;;;;;16.00;10.30;;;13.60;99.90;;;;;;5008379;28;20072;-88
2023/04/23 08:08:37;;;;;;;14.40;9.88;;;13.70;99.90;;;;;;5012528;28;20121;-89
2023/04/23 08:11:04;;;;;;;15.00;9.75;;;13.70;99.90;;;;;;5020978;28;20022;-90
2023/04/23 08:13:29;;;;;;;19.67;9.48;;;13.80;99.90;;;;;;5018671;28;20037;-89
2023/04/23 08:15:55;;;;;;;17.77;9.35;;;13.90;99.90;;;;;;5009768;28;20022;-88
2023/04/23 08:18:20;;;;;;;11.80;9.30;;;14.00;99.90;;;;;;5018804;28;20045;-88
2023/04/23 08:20:47;;;;;;;12.32;7.65;;;14.10;99.90;;;;;;5019806;28;20048;-90
2023/04/23 08:23:12;;;;;;;12.55;7.13;;;14.20;99.90;;;;;;5021344;28;20029;-88
2023/04/23 08:25:38;;;;;;;12.57;7.45;;;14.20;99.90;;;;;;5010097;28;20037;-87
2023/04/23 08:28:04;;;;;;;15.55;7.53;;;14.20;99.90;;;;;;5012796;28;20037;-89
2023/04/23 08:30:29;;;;;;;12.45;7.47;;;14.30;99.90;;;;;;5017486;28;20592;-88
2023/04/23 08:32:55;;;;;;;13.13;6.75;;;14.40;99.90;;;;;;5012216;28;20026;-88
2023/04/23 08:35:22;;;;;;;9.98;6.00;;;14.50;99.90;;;;;;4999932;28;20030;-89
2023/04/23 08:37:47;;;;;;;12.95;6.13;;;14.60;99.90;;;;;;5007097;28;20394;-88
2023/04/23 08:40:13;;;;;;;9.30;5.85;;;14.70;99.90;;;;;;5007954;28;20033;-88
2023/04/23 08:43:01;;;;;;;11.05;5.68;;;14.70;99.90;;;;;;5012685;28;20022;-89
2023/04/23 08:45:28;;;;;;;9.02;5.07;;;14.80;99.90;;;;;;5012016;28;20037;-89
2023/04/23 08:47:58;;;;;;;8.27;4.28;;;14.90;99.90;;;;;;5016643;28;20022;-89
2023/04/23 08:50:24;;;;;;;9.32;4.78;;;14.90;99.90;;;;;;5009714;28;20026;-89
2023/04/23 08:52:53;;;;;;;8.10;4.43;;;14.90;99.90;;;;;;5010710;28;20026;-88
2023/04/23 08:55:20;;;;;;;8.82;3.70;;;15.00;99.90;;;;;;5007949;28;20061;-89
2023/04/23 08:57:47;;;;;;;8.55;2.92;;;15.00;99.90;;;;;;5005683;28;20034;-89
2023/04/23 09:00:14;;;;;;;8.15;3.03;;;15.10;99.90;;;;;;5004667;28;20034;-88
2023/04/23 09:02:42;;;;;;;10.35;3.17;;;15.10;99.90;;;;;;5007526;28;20061;-89
2023/04/23 09:05:08;;;;;;;7.72;2.40;;;15.10;99.90;;;;;;5022644;28;20049;-87
2023/04/23 09:07:35;;;;;;;8.93;2.38;;;15.20;99.90;;;;;;5009584;28;20065;-88
2023/04/23 09:10:05;;;;;;;7.50;2.17;;;15.30;99.90;;;;;;5011572;28;20022;-84
2023/04/23 09:12:31;;;;;;;7.50;2.42;;;15.40;99.90;;;;;;5008382;28;20034;-86
2023/04/23 09:14:57;;;;;;;8.07;1.75;;;15.50;99.90;;;;;;5006226;28;20169;-84
2023/04/23 09:17:27;;;;;;;9.73;2.35;;;15.60;99.90;;;;;;5006297;28;20566;-85
2023/04/23 09:19:53;;;;;;;11.18;1.80;;;15.70;99.90;;;;;;5006757;28;20442;-86
2023/04/23 09:22:41;;;;;;;6.82;2.03;;;15.70;99.90;;;;;;5007221;28;20030;-85
2023/04/23 09:25:09;;;;;;;7.03;1.50;;;15.70;99.90;;;;;;5006614;28;20057;-85
2023/04/23 09:27:35;;;;;;;6.70;1.73;;;15.70;99.90;;;;;;5017900;28;20414;-84
2023/04/23 09:30:06;;;;;;;6.25;1.10;;;15.80;99.90;;;;;;5013377;28;20026;-86
2023/04/23 09:32:34;;;;;;;8.55;1.15;;;15.80;99.90;;;;;;5008268;28;20052;-86
2023/04/23 09:35:05;;;;;;;5.93;0.93;;;15.90;99.90;;;;;;5013617;28;20026;-85
2023/04/23 09:37:31;;;;;;;5.28;1.20;;;16.00;99.90;;;;;;5007873;28;20053;-85
2023/04/23 09:40:09;;;;;;;8.77;1.00;;;16.00;99.90;;;;;;5000979;28;20462;-86
2023/04/23 09:42:35;;;;;;;10.10;1.00;;;16.20;99.90;;;;;;5008494;28;20026;-86
2023/04/23 09:45:06;;;;;;;6.43;0.90;;;16.20;99.90;;;;;;5010399;28;20080;-85
2023/04/23 09:47:40;;;;;;;11.18;0.82;;;16.30;99.90;;;;;;4999683;28;20025;-85
2023/04/23 09:50:07;;;;;;;8.68;0.80;;;16.40;99.90;;;;;;5004711;28;20042;-85
2023/04/23 09:52:33;;;;;;;6.72;0.80;;;16.50;99.90;;;;;;5013898;28;20030;-86
2023/04/23 09:55:01;;;;;;;8.23;0.80;;;16.50;99.90;;;;;;5006573;28;20044;-86
2023/04/23 09:57:27;;;;;;;8.60;0.88;;;16.50;99.90;;;;;;5025284;28;20030;-86
2023/04/23 09:59:56;;;;;;;8.15;0.90;;;16.50;99.90;;;;;;5006120;28;20091;-86
2023/04/23 10:02:32;;;;;;;9.25;1.02;;;16.50;99.90;;;;;;5001115;28;20092;-86
2023/04/23 10:04:58;;;;;;;5.07;0.70;;;16.60;99.90;;;;;;5002277;28;20042;-85
2023/04/23 10:07:23;;;;;;;8.77;0.80;;;16.80;99.90;;;;;;5004965;28;20054;-85
2023/04/23 10:09:49;;;;;;;8.45;0.85;;;16.90;99.90;;;;;;5003352;28;20116;-85
2023/04/23 10:12:16;;;;;;;6.45;0.60;;;17.00;99.90;;;;;;5004496;28;21808;-86
2023/04/23 10:14:42;;;;;;;8.93;0.60;;;17.10;99.90;;;;;;5011852;28;20565;-86
2023/04/23 10:17:08;;;;;;;4.93;0.50;;;17.10;99.90;;;;;;5013321;28;20049;-86
2023/04/23 10:19:36;;;;;;;4.10;0.60;;;17.10;99.90;;;;;;5013156;28;20030;-86
2023/04/23 10:22:06;;;;;;;5.85;0.55;;;17.20;99.90;;;;;;5010436;28;20125;-86
2023/04/23 10:24:33;;;;;;;5.05;0.98;;;17.20;99.90;;;;;;5010256;28;20084;-86
2023/04/23 10:27:01;;;;;;;3.65;0.40;;;17.30;99.90;;;;;;5012785;28;20018;-86
2023/04/23 10:29:31;;;;;;;3.33;0.40;;;17.20;99.90;;;;;;5012173;28;20367;-87
2023/04/23 10:32:02;;;;;;;4.03;0.57;;;17.20;99.90;;;;;;5004919;28;20026;-87
2023/04/23 10:34:29;;;;;;;6.22;0.50;;;17.30;99.90;;;;;;5005272;28;20034;-86
2023/04/23 10:36:58;;;;;;;5.78;0.60;;;17.30;99.90;;;;;;5006764;28;20026;-86
2023/04/23 10:39:26;;;;;;;6.60;0.60;;;17.40;99.90;;;;;;5003162;28;20034;-86
2023/04/23 10:41:54;;;;;;;6.80;0.77;;;17.60;99.90;;;;;;5005167;28;20090;-87
2023/04/23 10:44:22;;;;;;;3.55;0.50;;;17.60;99.90;;;;;;5008708;28;20033;-86
2023/04/23 10:46:56;;;;;;;4.57;0.43;;;17.60;99.90;;;;;;5012246;28;20025;-87
2023/04/23 10:49:24;;;;;;;5.13;0.50;;;17.80;99.90;;;;;;5012601;28;20029;-87
2023/04/23 10:52:01;;;;;;;4.32;0.40;;;17.90;99.90;;;;;;5011998;28;20026;-87
2023/04/23 10:54:31;;;;;;;3.10;0.38;;;18.10;99.90;;;;;;5012642;28;20110;-87
2023/04/23 10:57:01;;;;;;;4.95;0.50;;;18.30;99.90;;;;;;5010833;28;20034;-87
2023/04/23 10:59:28;;;;;;;4.07;0.40;;;18.40;99.90;;;;;;5007961;28;20157;-86
2023/04/23 11:01:57;;;;;;;5.93;0.50;;;18.50;99.90;;;;;;5009665;28;20027;-87
2023/04/23 11:04:28;;;;;;;3.28;0.30;;;18.70;99.90;;;;;;5010522;28;20049;-86
2023/04/23 11:07:00;;;;;;;3.20;0.50;;;18.70;99.90;;;;;;5015427;28;20052;-87
2023/04/23 11:09:39;;;;;;;3.38;0.43;;;18.80;99.90;;;;;;5012112;28;20029;-87
2023/04/23 11:12:07;;;;;;;4.38;0.40;;;18.70;99.90;;;;;;4995105;28;20065;-87
2023/04/23 11:14:47;;;;;;;3.95;0.40;;;18.70;99.90;;;;;;5004087;28;20025;-86
2023/04/23 11:17:14;;;;;;;4.38;0.68;;;18.60;99.90;;;;;;5014300;28;20065;-86
2023/04/23 11:19:41;;;;;;;2.22;0.40;;;18.50;99.90;;;;;;5013478;28;20048;-86
2023/04/23 11:22:16;;;;;;;4.60;0.82;;;18.50;99.90;;;;;;5012037;28;20022;-87
2023/04/23 11:24:43;;;;;;;2.97;0.50;;;18.50;99.90;;;;;;5035055;28;20032;-86
2023/04/23 11:27:14;;;;;;;2.65;0.40;;;18.50;99.90;;;;;;5011066;28;20030;-87
2023/04/23 11:29:42;;;;;;;5.05;0.50;;;18.50;99.90;;;;;;5010990;28;20732;-87
2023/04/23 11:32:12;;;;;;;6.10;0.40;;;18.50;99.90;;;;;;5013097;28;20030;-86
2023/04/23 11:34:42;;;;;;;3.33;0.40;;;18.50;99.90;;;;;;5013221;28;20026;-86
2023/04/23 11:37:16;;;;;;;4.43;0.50;;;18.60;99.90;;;;;;5012611;28;20637;-86
2023/04/23 11:39:43;;;;;;;7.05;0.50;;;18.60;99.90;;;;;;5028945;28;20041;-87
2023/04/23 11:42:13;;;;;;;4.60;0.50;;;18.60;99.90;;;;;;5013255;28;20033;-86
2023/04/23 11:44:40;;;;;;;3.20;0.50;;;18.60;99.90;;;;;;5013730;28;20574;-86
2023/04/23 11:47:12;;;;;;;2.97;0.50;;;18.70;99.90;;;;;;5012351;28;20125;-86
2023/04/23 11:49:41;;;;;;;2.72;0.60;;;18.70;99.90;;;;;;5009803;28;20046;-87
2023/04/23 11:52:07;;;;;;;2.60;0.50;;;18.70;99.90;;;;;;5010669;28;20099;-87
2023/04/23 11:54:33;;;;;;;3.05;0.50;;;18.70;99.90;;;;;;5011998;28;20029;-87
2023/04/23 11:57:00;;;;;;;5.25;0.68;;;18.80;99.40;;;;;;4993773;28;20077;-87
2023/04/23 11:59:27;;;;;;;3.75;0.50;;;18.80;99.70;;;;;;5001313;28;20104;-88
2023/04/23 12:01:56;;;;;;;5.07;0.60;;;18.90;99.80;;;;;;5011896;28;20025;-87
2023/04/23 12:04:24;;;;;;;5.07;0.52;;;18.90;98.70;;;;;;5006936;28;20077;-88
2023/04/23 12:06:50;;;;;;;2.55;0.43;;;18.90;98.60;;;;;;5008277;28;20018;-88
2023/04/23 12:09:18;;;;;;;8.07;0.40;;;18.90;99.10;;;;;;5002788;28;20033;-87
2023/04/23 12:11:44;;;;;;;2.90;0.40;;;18.90;99.30;;;;;;5010315;28;20030;-87
2023/04/23 12:14:13;;;;;;;4.45;0.50;;;19.00;99.20;;;;;;5013236;28;20022;-87
2023/04/23 12:16:43;;;;;;;5.78;0.65;;;19.00;98.90;;;;;;5005918;28;20018;-87
2023/04/23 12:19:20;;;;;;;3.20;0.50;;;19.10;99.10;;;;;;5008154;28;20573;-87
2023/04/23 12:21:48;;;;;;;3.20;0.40;;;19.10;98.90;;;;;;5012648;28;20053;-87
2023/04/23 12:24:14;;;;;;;3.13;0.50;;;19.10;98.50;;;;;;5014302;28;20030;-86
2023/04/23 12:26:42;;;;;;;4.88;0.43;;;19.00;98.70;;;;;;5013414;28;20402;-87
2023/04/23 12:29:07;;;;;;;2.70;0.40;;;19.10;98.30;;;;;;5011782;28;20030;-88
2023/04/23 12:31:35;;;;;;;8.02;1.20;;;19.20;98.50;;;;;;5015999;28;20022;-88
2023/04/23 12:34:04;;;;;;;3.50;0.38;;;19.30;98.90;;;;;;5029297;28;20045;-88